Overview Statistics Trail Chart Weather Telemetry Raw packets
 

This is the latest recevied weather packets stored in our database for station/object NR0A-4. If no packets are shown the sender has not sent any weather packets the latest 10 day(s).

<< 56 57 58 59 60 61 62 >>
Time Temp. Humidity Pressure Rain* Wind** Luminosity Snow
1788279905 30.56° C 68% 1013.5 hPa 0 mm - 506 W/m² -
1788279604 30° C 69% 1013.6 hPa 0 mm - 267 W/m² -
1788279304 30° C 68% 1013.8 hPa 0 mm - 631 W/m² -
1788279004 30° C 68% 1013.8 hPa 0 mm - 622 W/m² -
1788278704 30.56° C 70% 1013.9 hPa 0 mm - 592 W/m² -
1788278405 30° C 71% 1013.8 hPa 0 mm - 596 W/m² -
1788278105 30° C 71% 1013.9 hPa 0 mm - 480 W/m² -
1788277804 29.44° C 74% 1014 hPa 0 mm - 712 W/m² -
1788277505 29.44° C 71% 1014 hPa 0 mm - 564 W/m² -
1788277204 29.44° C 70% 1014 hPa 0 mm - 369 W/m² -
1788276905 29.44° C 71% 1014 hPa 0 mm - 327 W/m² -
1788276605 29.44° C 72% 1014.1 hPa 0 mm - 589 W/m² -
1788276304 28.89° C 73% 1014.1 hPa 0 mm - 585 W/m² -
1788276024 28.89° C 73% 1014.1 hPa 0 mm - 290 W/m² -
1788275704 28.89° C 73% 1014 hPa 0 mm - 227 W/m² -
1788275405 28.89° C 75% 1014.2 hPa 0 mm - 592 W/m² -
1788275126 28.33° C 75% 1014.2 hPa 0 mm - 396 W/m² -
1788274804 28.33° C 75% 1014.3 hPa 0 mm - 582 W/m² -
1788274504 27.78° C 76% 1014.3 hPa 0 mm - 480 W/m² -
1788274204 27.78° C 77% 1014.2 hPa 0 mm - 236 W/m² -
1788273904 27.22° C 78% 1014.2 hPa 0 mm - 188 W/m² -
1788273604 27.22° C 77% 1014.3 hPa 0 mm - 420 W/m² -
1788273326 26.67° C 79% 1014.3 hPa 0 mm - 480 W/m² -
1788273004 26.67° C 81% 1014.3 hPa 0 mm - 441 W/m² -
1788272705 26.11° C 82% 1014.4 hPa 0 mm - 390 W/m² -

* Rain latest hour (hover to see other rain measurements)
** Current wind speed in m/s (hover to see current wind gust speed)